Time;durP1;ratioP1;P1;durP2;ratioP2;P2;SDS_P1;SDS_P2;PMS_P1;PMS_P2;Temp;Humidity;BMP_temperature;BMP_pressure;BME280_temperature;BME280_humidity;BME280_pressure;Samples;Min_cycle;Max_cycle;Signal;HPM_P1;HPM_P2
2021/08/07 00:00:50;;;;;;;17.17;12.25;;;;;;;19.54;78.04;99260.20;1745693;82;20947;-70
2021/08/07 00:03:18;;;;;;;17.98;11.10;;;;;;;19.56;78.10;99263.52;1747324;82;22167;-71
2021/08/07 00:05:45;;;;;;;15.08;11.25;;;;;;;19.55;78.07;99252.98;1751706;81;21023;-71
2021/08/07 00:08:12;;;;;;;15.25;10.93;;;;;;;19.52;78.01;99253.41;1737545;81;21012;-71
2021/08/07 00:10:38;;;;;;;14.80;11.33;;;;;;;19.53;78.00;99255.88;1735875;81;20960;-71
2021/08/07 00:13:04;;;;;;;14.05;10.53;;;;;;;19.54;77.99;99259.38;1731871;81;21411;-71
2021/08/07 00:15:33;;;;;;;13.05;10.70;;;;;;;19.57;77.94;99271.03;1753207;81;21755;-70
2021/08/07 00:18:00;;;;;;;14.47;9.88;;;;;;;19.58;77.84;99282.88;1737922;81;20949;-71
2021/08/07 00:20:26;;;;;;;15.08;10.03;;;;;;;19.59;77.75;99286.38;1746715;81;20968;-70
2021/08/07 00:22:53;;;;;;;13.40;9.80;;;;;;;19.58;77.71;99283.39;1746963;82;20990;-69
2021/08/07 00:25:20;;;;;;;14.35;9.38;;;;;;;19.58;77.63;99280.20;1745374;80;20960;-69
2021/08/07 00:27:47;;;;;;;13.58;9.03;;;;;;;19.61;77.56;99281.66;1752924;80;21815;-69
2021/08/07 00:30:13;;;;;;;13.30;9.20;;;;;;;19.61;77.41;99270.43;1755565;80;20984;-69
2021/08/07 00:32:40;;;;;;;14.03;9.45;;;;;;;19.62;77.32;99273.41;1737658;80;20992;-69
2021/08/07 00:35:08;;;;;;;12.55;9.20;;;;;;;19.63;77.28;99278.26;1751702;80;20960;-70
2021/08/07 00:37:38;;;;;;;14.20;9.40;;;;;;;19.65;77.15;99274.85;1727959;81;20989;-69
2021/08/07 00:40:08;;;;;;;15.98;10.00;;;;;;;19.65;77.05;99273.51;1739357;82;22653;-69
2021/08/07 00:42:35;;;;;;;12.93;9.38;;;;;;;19.61;76.99;99279.81;1747737;80;20997;-69
2021/08/07 00:45:04;;;;;;;13.30;10.05;;;;;;;19.59;76.88;99277.00;1750226;80;21009;-69
2021/08/07 00:47:32;;;;;;;14.58;9.83;;;;;;;19.56;76.85;99273.41;1748241;80;20983;-69
2021/08/07 00:50:01;;;;;;;12.30;10.00;;;;;;;19.57;76.85;99275.88;1753551;80;20921;-69
2021/08/07 00:52:30;;;;;;;15.65;10.50;;;;;;;19.58;76.84;99272.68;1725362;82;21816;-69
2021/08/07 00:54:59;;;;;;;14.00;9.48;;;;;;;19.58;76.82;99266.80;1746996;80;20952;-70
2021/08/07 00:57:26;;;;;;;9.93;8.68;;;;;;;19.56;76.81;99263.52;1737935;80;20998;-70
2021/08/07 00:59:55;;;;;;;14.10;9.08;;;;;;;19.52;76.83;99269.48;1752851;80;21016;-69
2021/08/07 01:02:24;;;;;;;13.68;9.25;;;;;;;19.50;76.87;99272.37;1770341;80;21071;-70
2021/08/07 01:05:15;;;;;;;13.32;9.35;;;;;;;19.52;76.87;99254.75;1737967;80;21833;-70
2021/08/07 01:08:11;;;;;;;14.15;9.38;;;;;;;19.52;76.80;99256.09;1751184;80;20961;-70
2021/08/07 01:10:50;;;;;;;11.97;9.43;;;;;;;19.53;76.76;99253.71;1716877;82;20970;-70
2021/08/07 01:13:26;;;;;;;14.73;10.05;;;;;;;19.51;76.75;99252.58;1730814;80;20956;-71
2021/08/07 01:16:04;;;;;;;16.42;11.20;;;;;;;19.49;76.85;99253.80;1743765;80;21125;-71
2021/08/07 01:18:35;;;;;;;16.37;11.78;;;;;;;19.48;76.94;99266.88;1753852;80;21004;-71
2021/08/07 01:21:06;;;;;;;14.23;10.58;;;;;;;19.45;76.98;99270.80;1751379;80;21016;-71
2021/08/07 01:23:50;;;;;;;17.27;10.48;;;;;;;19.43;77.09;99272.88;1720054;83;20992;-71
2021/08/07 01:26:59;;;;;;;15.72;10.13;;;;;;;19.42;77.13;99273.91;1740335;80;21007;-71
2021/08/07 01:29:26;;;;;;;12.60;9.70;;;;;;;19.38;77.18;99271.31;1760281;80;21068;-71
2021/08/07 01:31:55;;;;;;;13.72;10.48;;;;;;;19.35;77.29;99274.41;1754178;80;21855;-71
2021/08/07 01:34:23;;;;;;;14.98;10.18;;;;;;;19.34;77.36;99277.60;1724431;82;21033;-70
2021/08/07 01:36:50;;;;;;;14.43;10.88;;;;;;;19.34;77.37;99278.94;1740741;81;20961;-70
2021/08/07 01:39:21;;;;;;;11.20;9.60;;;;;;;19.34;77.32;99284.81;1732963;80;20984;-70
2021/08/07 01:41:48;;;;;;;11.60;9.60;;;;;;;19.31;77.31;99283.38;1760782;80;20976;-71
2021/08/07 01:44:16;;;;;;;11.50;9.05;;;;;;;19.29;77.35;99285.92;1749462;81;22224;-70
2021/08/07 01:46:57;;;;;;;15.28;9.45;;;;;;;19.27;77.45;99290.15;1753930;81;21005;-70
2021/08/07 01:49:34;;;;;;;10.75;8.85;;;;;;;19.26;77.43;99285.00;1770699;80;21047;-71
2021/08/07 01:52:08;;;;;;;12.47;8.55;;;;;;;19.24;77.47;99281.20;1737628;80;21111;-71
2021/08/07 01:54:42;;;;;;;18.90;8.63;;;;;;;19.25;77.36;99287.38;1746269;80;20941;-71
2021/08/07 01:57:12;;;;;;;12.47;8.58;;;;;;;19.26;77.30;99291.70;1754442;80;21809;-70
2021/08/07 01:59:41;;;;;;;14.55;8.43;;;;;;;19.27;77.19;99294.68;1774106;80;20997;-70
2021/08/07 02:02:08;;;;;;;12.93;8.10;;;;;;;19.29;77.11;99294.78;1780900;80;20990;-70
2021/08/07 02:04:45;;;;;;;13.00;8.53;;;;;;;19.31;76.96;99290.59;1763559;80;21053;-70
2021/08/07 02:07:21;;;;;;;11.22;8.20;;;;;;;19.31;76.85;99288.73;1745138;82;21448;-70
2021/08/07 02:09:49;;;;;;;14.25;7.75;;;;;;;19.33;76.77;99289.34;1777223;80;21802;-71
2021/08/07 02:12:16;;;;;;;11.00;8.20;;;;;;;19.34;76.83;99297.69;1743946;80;21041;-71
2021/08/07 02:14:44;;;;;;;12.23;8.10;;;;;;;19.34;76.89;99298.20;1765665;80;20981;-71
2021/08/07 02:17:12;;;;;;;11.75;8.20;;;;;;;19.33;77.00;99289.86;1784561;80;21063;-71
2021/08/07 02:19:39;;;;;;;11.33;8.55;;;;;;;19.28;77.11;99289.12;1739795;80;21478;-70
2021/08/07 02:22:06;;;;;;;10.65;8.10;;;;;;;19.26;77.16;99294.38;1759921;80;22664;-70
2021/08/07 02:24:35;;;;;;;11.12;8.28;;;;;;;19.27;77.11;99282.63;1715241;80;21011;-71
2021/08/07 02:27:03;;;;;;;15.88;8.20;;;;;;;19.26;77.14;99276.97;1775681;80;20941;-70
2021/08/07 02:29:30;;;;;;;12.90;8.43;;;;;;;19.26;77.20;99276.45;1767717;80;20977;-71
2021/08/07 02:31:59;;;;;;;9.70;8.23;;;;;;;19.25;77.20;99280.17;1776613;80;20998;-70
2021/08/07 02:34:29;;;;;;;10.68;7.90;;;;;;;19.25;77.17;99280.17;1759160;80;21831;-71
2021/08/07 02:36:57;;;;;;;14.35;8.03;;;;;;;19.24;77.14;99275.02;1747418;82;20989;-70
2021/08/07 02:39:25;;;;;;;11.95;8.05;;;;;;;19.22;77.11;99265.86;1722058;82;20995;-71
2021/08/07 02:41:55;;;;;;;12.98;8.10;;;;;;;19.20;77.03;99274.59;1730596;80;21516;-71
2021/08/07 02:44:23;;;;;;;10.72;7.87;;;;;;;19.21;76.97;99285.63;1769754;80;21035;-70
2021/08/07 02:46:50;;;;;;;9.70;7.80;;;;;;;19.21;76.88;99292.33;1765730;80;22207;-70
2021/08/07 02:49:17;;;;;;;13.55;8.05;;;;;;;19.19;76.82;99297.55;1723245;80;20997;-71
2021/08/07 02:51:44;;;;;;;13.75;9.10;;;;;;;19.15;76.78;99295.80;1745320;80;21016;-71
2021/08/07 02:54:11;;;;;;;10.40;8.48;;;;;;;19.12;76.81;99301.58;1744655;82;21420;-71
2021/08/07 02:56:38;;;;;;;12.60;8.43;;;;;;;19.11;76.85;99299.41;1752294;80;20997;-71
2021/08/07 02:59:04;;;;;;;10.70;7.67;;;;;;;19.13;76.89;99299.20;1775458;80;22471;-70
2021/08/07 03:01:34;;;;;;;10.85;8.50;;;;;;;19.12;76.83;99309.60;1757475;80;20980;-71
2021/08/07 03:04:01;;;;;;;13.30;8.35;;;;;;;19.09;76.84;99310.81;1736991;80;20996;-71
2021/08/07 03:06:28;;;;;;;13.18;8.40;;;;;;;19.07;76.87;99305.36;1718913;82;21392;-71
2021/08/07 03:08:56;;;;;;;14.18;7.83;;;;;;;19.06;76.89;99310.41;1749265;81;21541;-71
2021/08/07 03:11:25;;;;;;;13.83;8.45;;;;;;;19.04;76.87;99311.12;1748677;80;20988;-71
2021/08/07 03:13:54;;;;;;;12.63;7.97;;;;;;;19.01;76.91;99308.34;1758291;80;21468;-71
2021/08/07 03:16:22;;;;;;;12.18;8.50;;;;;;;18.98;76.95;99307.91;1775793;80;20942;-71
2021/08/07 03:18:50;;;;;;;12.60;8.20;;;;;;;18.96;77.00;99304.61;1734227;82;20964;-71
2021/08/07 03:21:16;;;;;;;13.43;8.38;;;;;;;18.94;77.02;99305.34;1742144;82;21518;-72
2021/08/07 03:23:51;;;;;;;10.68;7.83;;;;;;;18.94;77.07;99298.65;1742748;82;21817;-71
2021/08/07 03:26:17;;;;;;;11.65;8.18;;;;;;;18.93;77.04;99298.34;1742987;80;21055;-71
2021/08/07 03:28:45;;;;;;;12.53;8.70;;;;;;;18.91;77.17;99301.19;1760283;80;21000;-71
2021/08/07 03:31:13;;;;;;;12.10;8.50;;;;;;;18.88;77.22;99291.72;1774147;80;21477;-71
2021/08/07 03:33:40;;;;;;;10.48;8.30;;;;;;;18.88;77.25;99297.08;1778150;80;21348;-71
2021/08/07 03:36:08;;;;;;;11.48;8.10;;;;;;;18.87;77.35;99295.94;1758465;80;22221;-71
2021/08/07 03:38:37;;;;;;;11.48;8.30;;;;;;;18.85;77.43;99298.00;1782001;80;20985;-71
2021/08/07 03:41:04;;;;;;;9.20;7.45;;;;;;;18.84;77.59;99293.68;1786409;80;20988;-71
2021/08/07 03:43:30;;;;;;;10.38;8.00;;;;;;;18.85;77.70;99293.47;1761389;80;21135;-71
2021/08/07 03:45:58;;;;;;;10.08;7.85;;;;;;;18.84;77.85;99278.45;1744947;80;20985;-71
2021/08/07 03:48:26;;;;;;;10.63;7.65;;;;;;;18.84;78.01;99274.95;1691428;83;22227;-71
2021/08/07 03:50:53;;;;;;;10.95;8.00;;;;;;;18.85;78.14;99281.44;1753066;80;21001;-71
2021/08/07 03:53:21;;;;;;;14.05;7.90;;;;;;;18.87;78.27;99282.05;1758512;80;20953;-71
2021/08/07 03:55:51;;;;;;;9.35;7.45;;;;;;;18.88;78.31;99288.22;1753263;80;20980;-71
2021/08/07 03:58:18;;;;;;;9.83;7.70;;;;;;;18.90;78.40;99304.07;1782327;80;20985;-71
2021/08/07 04:00:46;;;;;;;10.45;7.60;;;;;;;18.91;78.53;99309.73;1759467;80;22232;-71
2021/08/07 04:03:16;;;;;;;10.95;8.05;;;;;;;18.90;78.60;99306.23;1752898;80;20952;-72
2021/08/07 04:05:42;;;;;;;10.88;7.65;;;;;;;18.93;78.62;99309.86;1760296;80;20975;-71
2021/08/07 04:08:09;;;;;;;10.10;8.08;;;;;;;18.99;78.66;99317.58;1766606;80;20945;-71
2021/08/07 04:10:38;;;;;;;12.05;8.18;;;;;;;19.01;78.67;99314.19;1767312;80;21423;-71
2021/08/07 04:13:06;;;;;;;11.00;7.15;;;;;;;19.00;78.68;99316.55;1748410;80;21824;-71
2021/08/07 04:15:34;;;;;;;10.88;7.78;;;;;;;19.01;78.79;99314.19;1748698;80;20980;-71
2021/08/07 04:18:00;;;;;;;9.33;8.28;;;;;;;18.95;78.98;99309.66;1753199;81;21002;-71
2021/08/07 04:20:27;;;;;;;11.68;8.48;;;;;;;18.95;79.14;99323.86;1753442;81;21053;-70
2021/08/07 04:22:54;;;;;;;12.30;8.50;;;;;;;18.94;79.22;99325.41;1749248;82;21477;-71
2021/08/07 04:25:22;;;;;;;10.75;8.13;;;;;;;18.93;79.29;99330.45;1748010;81;22427;-71
2021/08/07 04:27:48;;;;;;;13.28;9.35;;;;;;;18.94;79.40;99335.59;1749320;81;21132;-72
2021/08/07 04:30:15;;;;;;;15.08;9.48;;;;;;;18.97;79.47;99350.41;1749526;82;21052;-72
2021/08/07 04:32:44;;;;;;;14.33;9.35;;;;;;;19.01;79.48;99360.53;1750612;81;21103;-72
2021/08/07 04:35:11;;;;;;;11.22;9.35;;;;;;;19.02;79.48;99351.98;1747855;80;21417;-72
2021/08/07 04:37:49;;;;;;;12.20;9.60;;;;;;;19.02;79.48;99350.14;1745310;82;21781;-72
2021/08/07 04:40:17;;;;;;;14.30;11.10;;;;;;;19.07;79.51;99348.18;1717077;83;21484;-72
2021/08/07 04:42:44;;;;;;;12.37;11.08;;;;;;;19.11;79.54;99362.83;1727208;81;21032;-73
2021/08/07 04:45:11;;;;;;;15.53;13.75;;;;;;;19.10;79.48;99371.34;1743101;81;21154;-72
2021/08/07 04:47:51;;;;;;;16.85;13.30;;;;;;;19.10;79.54;99374.53;1747129;81;21177;-71
2021/08/07 04:50:19;;;;;;;17.85;15.30;;;;;;;19.14;79.57;99387.84;1754255;81;21861;-71
2021/08/07 04:52:46;;;;;;;21.12;16.57;;;;;;;19.16;79.52;99395.16;1748646;81;20984;-70
2021/08/07 04:55:12;;;;;;;21.42;17.50;;;;;;;19.18;79.49;99391.75;1749564;82;21099;-71
2021/08/07 04:57:39;;;;;;;23.18;19.62;;;;;;;19.18;79.43;99398.45;1749553;82;20988;-70
2021/08/07 05:00:09;;;;;;;23.50;20.97;;;;;;;19.19;79.34;99397.94;1749368;82;21009;-70
2021/08/07 05:02:36;;;;;;;26.55;22.17;;;;;;;19.15;79.37;99397.52;1722047;82;22549;-71
2021/08/07 05:05:03;;;;;;;27.27;22.52;;;;;;;19.14;79.46;99398.55;1723429;81;21420;-70
2021/08/07 05:07:33;;;;;;;33.23;26.68;;;;;;;19.16;79.49;99402.67;1723085;81;21595;-70
2021/08/07 05:10:00;;;;;;;32.00;27.17;;;;;;;19.20;79.51;99396.91;1740696;82;21382;-71
2021/08/07 05:12:29;;;;;;;35.90;28.42;;;;;;;19.21;79.39;99387.88;1749254;81;20933;-71
2021/08/07 05:14:56;;;;;;;36.38;27.10;;;;;;;19.19;79.36;99384.03;1750392;81;21772;-71
2021/08/07 05:17:24;;;;;;;41.25;31.05;;;;;;;19.21;79.49;99379.33;1729632;81;21586;-71
2021/08/07 05:19:52;;;;;;;50.05;32.50;;;;;;;19.23;79.42;99388.49;1750217;81;21048;-72
2021/08/07 05:22:19;;;;;;;40.28;31.85;;;;;;;19.25;79.41;99397.14;1748441;81;21008;-71
2021/08/07 05:24:49;;;;;;;42.00;32.63;;;;;;;19.30;79.54;99391.50;1751674;81;20954;-70
2021/08/07 05:27:16;;;;;;;43.60;34.67;;;;;;;19.34;79.49;99401.28;1740346;82;21851;-71
2021/08/07 05:29:42;;;;;;;49.58;35.92;;;;;;;19.36;79.38;99405.41;1765908;80;20917;-70
2021/08/07 05:32:09;;;;;;;47.35;36.65;;;;;;;19.36;79.26;99412.61;1754842;80;21028;-71
2021/08/07 05:34:35;;;;;;;49.65;37.65;;;;;;;19.33;79.18;99413.85;1731823;82;20960;-72
2021/08/07 05:37:02;;;;;;;46.65;36.28;;;;;;;19.32;79.21;99414.05;1716443;83;21003;-72
2021/08/07 05:39:30;;;;;;;49.05;38.53;;;;;;;19.32;79.15;99421.58;1716196;83;22872;-72
2021/08/07 05:41:56;;;;;;;40.00;31.12;;;;;;;19.27;79.14;99423.19;1715000;82;21508;-71
2021/08/07 05:44:23;;;;;;;47.60;36.58;;;;;;;19.24;79.24;99422.27;1744522;80;21535;-71
2021/08/07 05:46:50;;;;;;;50.20;37.48;;;;;;;19.23;79.26;99425.45;1747251;81;21442;-72
2021/08/07 05:49:16;;;;;;;48.95;37.13;;;;;;;19.26;79.33;99425.05;1750067;80;21037;-71
2021/08/07 05:51:43;;;;;;;50.12;36.42;;;;;;;19.23;79.41;99414.75;1753158;81;21764;-71
2021/08/07 05:54:09;;;;;;;54.03;39.23;;;;;;;19.25;79.54;99406.51;1749951;82;20933;-71
2021/08/07 05:56:37;;;;;;;53.70;38.30;;;;;;;19.23;79.52;99409.39;1750157;82;21008;-70
2021/08/07 05:59:03;;;;;;;53.85;39.98;;;;;;;19.27;79.57;99407.95;1748944;82;21032;-71
2021/08/07 06:01:31;;;;;;;56.28;39.65;;;;;;;19.30;79.67;99402.22;1749333;82;20996;-71
2021/08/07 06:03:57;;;;;;;50.90;37.20;;;;;;;19.37;79.72;99415.08;1747237;82;22260;-71
2021/08/07 06:06:23;;;;;;;49.90;38.15;;;;;;;19.43;79.73;99418.82;1720254;82;21088;-70
2021/08/07 06:08:52;;;;;;;52.60;38.13;;;;;;;19.44;79.64;99419.13;1749412;82;21463;-70
2021/08/07 06:11:21;;;;;;;50.17;38.45;;;;;;;19.48;79.56;99428.91;1745890;82;20965;-71
2021/08/07 06:13:49;;;;;;;48.92;37.48;;;;;;;19.50;79.58;99434.40;1746656;82;20945;-70
2021/08/07 06:16:15;;;;;;;39.65;31.10;;;;;;;19.56;79.65;99435.45;1750582;81;21820;-71
2021/08/07 06:18:42;;;;;;;42.90;34.38;;;;;;;19.64;79.48;99432.59;1746155;81;20965;-69
2021/08/07 06:21:09;;;;;;;37.88;29.07;;;;;;;19.68;79.36;99435.98;1748050;82;21049;-71
2021/08/07 06:23:35;;;;;;;36.42;30.85;;;;;;;19.79;79.06;99433.25;1744673;82;21062;-71
2021/08/07 06:26:02;;;;;;;37.05;32.03;;;;;;;19.85;78.90;99434.27;1748204;81;20952;-72
2021/08/07 06:28:31;;;;;;;38.70;30.77;;;;;;;19.93;78.78;99431.39;1744871;82;21791;-73
2021/08/07 06:30:58;;;;;;;32.45;28.15;;;;;;;20.04;78.74;99423.25;1712637;82;21060;-71
2021/08/07 06:33:26;;;;;;;29.30;26.07;;;;;;;20.16;78.36;99413.03;1742703;82;21045;-71
2021/08/07 06:35:53;;;;;;;30.30;26.60;;;;;;;20.24;78.04;99403.44;1745559;82;21044;-73
2021/08/07 06:38:21;;;;;;;33.50;26.37;;;;;;;20.35;77.98;99408.69;1717937;82;21513;-71
2021/08/07 06:40:48;;;;;;;26.65;23.47;;;;;;;20.48;77.66;99404.69;1741507;81;21902;-73
2021/08/07 06:43:16;;;;;;;29.20;24.77;;;;;;;20.57;77.05;99394.05;1744919;82;21009;-71
2021/08/07 06:45:47;;;;;;;25.25;21.60;;;;;;;20.67;76.67;99398.15;1741386;81;21078;-71
2021/08/07 06:48:16;;;;;;;25.85;22.75;;;;;;;20.73;76.12;99394.08;1744781;82;20969;-71
2021/08/07 06:50:42;;;;;;;25.92;21.35;;;;;;;20.77;75.64;99394.50;1741920;81;20964;-70
2021/08/07 06:53:11;;;;;;;23.98;19.85;;;;;;;20.83;75.38;99390.95;1745583;82;22235;-71
2021/08/07 06:55:37;;;;;;;19.85;17.75;;;;;;;20.92;75.26;99406.31;1740981;82;20970;-70
2021/08/07 06:58:04;;;;;;;19.17;17.17;;;;;;;21.02;74.68;99395.42;1747222;82;21075;-71
2021/08/07 07:00:31;;;;;;;18.45;16.55;;;;;;;21.14;74.24;99405.81;1747951;81;20956;-70
2021/08/07 07:02:59;;;;;;;14.53;12.98;;;;;;;21.29;74.29;99392.64;1748226;81;21013;-71
2021/08/07 07:05:31;;;;;;;14.40;12.75;;;;;;;21.44;73.37;99387.81;1748243;82;22194;-71
2021/08/07 07:07:55;;;;;;;13.40;11.70;;;;;;;21.56;72.58;99396.82;1707868;83;20990;-71
2021/08/07 07:10:22;;;;;;;12.37;11.12;;;;;;;21.64;72.15;99395.22;1724912;82;20947;-71
2021/08/07 07:12:48;;;;;;;13.48;11.35;;;;;;;21.67;71.44;99415.45;1749147;82;21007;-71
2021/08/07 07:15:17;;;;;;;12.75;11.45;;;;;;;21.69;71.43;99415.53;1746921;82;21009;-70
2021/08/07 07:17:44;;;;;;;11.08;9.40;;;;;;;21.77;71.32;99417.14;1746871;82;22676;-69
2021/08/07 07:20:12;;;;;;;8.80;7.62;;;;;;;21.78;70.18;99422.81;1749931;82;21424;-69
2021/08/07 07:22:39;;;;;;;10.32;7.60;;;;;;;21.77;69.77;99427.07;1749612;82;20956;-69
2021/08/07 07:25:09;;;;;;;7.80;7.00;;;;;;;21.75;70.09;99443.94;1735116;82;21431;-68
2021/08/07 07:27:36;;;;;;;8.33;6.25;;;;;;;21.73;69.50;99457.61;1734248;82;21039;-69
2021/08/07 07:30:05;;;;;;;7.70;6.10;;;;;;;21.68;69.32;99462.79;1718284;83;21582;-69
2021/08/07 07:32:31;;;;;;;8.05;5.67;;;;;;;21.67;69.52;99465.17;1721803;83;20846;-69
2021/08/07 07:34:58;;;;;;;10.00;6.25;;;;;;;21.68;69.15;99467.64;1731278;81;20957;-69
2021/08/07 07:37:25;;;;;;;7.05;6.28;;;;;;;21.73;69.13;99471.05;1751140;80;21021;-69
2021/08/07 07:39:53;;;;;;;6.87;5.60;;;;;;;21.83;69.05;99474.60;1786507;80;21004;-70
2021/08/07 07:42:20;;;;;;;6.62;5.90;;;;;;;21.92;68.32;99471.95;1727284;81;22210;-72
2021/08/07 07:44:46;;;;;;;7.62;4.92;;;;;;;22.02;68.23;99472.30;1746549;81;20988;-71
2021/08/07 07:47:13;;;;;;;6.95;4.97;;;;;;;22.15;67.39;99468.70;1732745;81;21100;-71
2021/08/07 07:49:40;;;;;;;6.08;5.45;;;;;;;22.18;66.79;99473.64;1716021;82;21436;-71
2021/08/07 07:52:09;;;;;;;5.33;4.83;;;;;;;22.08;65.55;99472.78;1730925;81;21027;-72
2021/08/07 07:54:37;;;;;;;5.33;4.50;;;;;;;22.02;65.28;99480.36;1751784;81;22521;-71
2021/08/07 07:57:05;;;;;;;8.75;4.78;;;;;;;21.99;65.70;99489.67;1748462;81;21011;-72
2021/08/07 07:59:33;;;;;;;7.75;4.47;;;;;;;22.03;65.69;99492.77;1739940;81;21470;-71
2021/08/07 08:02:02;;;;;;;6.50;4.65;;;;;;;22.06;65.38;99486.12;1739133;82;21044;-72
2021/08/07 08:04:29;;;;;;;5.67;4.50;;;;;;;;;;1750376;81;21048;-73
2021/08/07 08:06:58;;;;;;;7.65;4.37;;;;;;;22.12;64.22;99488.80;1747401;81;22225;-73
2021/08/07 08:09:24;;;;;;;7.47;4.30;;;;;;;;;;1729860;81;21539;-72
2021/08/07 08:11:52;;;;;;;10.82;4.72;;;;;;;22.11;63.55;99485.81;1748618;81;21043;-72
2021/08/07 08:14:19;;;;;;;9.73;4.35;;;;;;;22.18;63.52;99477.15;1753641;81;21490;-71
2021/08/07 08:16:47;;;;;;;7.70;4.58;;;;;;;22.27;63.76;99471.80;1749999;81;21028;-72
2021/08/07 08:19:14;;;;;;;11.43;5.15;;;;;;;22.36;63.73;99472.35;1745711;82;21813;-71
2021/08/07 08:21:41;;;;;;;9.50;4.85;;;;;;;22.45;62.95;99479.62;1751860;81;21024;-72
2021/08/07 08:24:08;;;;;;;12.75;5.70;;;;;;;22.48;63.09;99476.48;1753558;81;21037;-71
2021/08/07 08:26:35;;;;;;;8.35;4.78;;;;;;;22.51;63.07;99478.23;1746446;81;21494;-71
2021/08/07 08:29:01;;;;;;;7.22;4.70;;;;;;;22.56;63.44;99481.59;1751267;81;21566;-71
2021/08/07 08:31:29;;;;;;;8.55;4.40;;;;;;;22.63;62.94;99485.58;1749570;81;22858;-71
2021/08/07 08:33:55;;;;;;;12.75;4.90;;;;;;;22.68;62.44;99482.53;1750666;81;22129;-73
2021/08/07 08:36:23;;;;;;;8.03;4.42;;;;;;;22.69;62.15;99482.83;1748808;81;22089;-71
2021/08/07 08:38:50;;;;;;;6.58;4.45;;;;;;;22.71;62.10;99476.70;1714807;83;21478;-72
2021/08/07 08:41:16;;;;;;;9.95;4.45;;;;;;;22.75;61.55;99483.80;1716961;82;21530;-71
2021/08/07 08:43:43;;;;;;;6.20;4.17;;;;;;;22.73;60.63;99485.37;1694497;84;21793;-70
2021/08/07 08:46:10;;;;;;;5.90;4.25;;;;;;;22.74;60.54;99490.22;1694065;84;21655;-70
2021/08/07 08:48:40;;;;;;;5.15;4.10;;;;;;;22.76;61.04;99488.13;1717661;82;21451;-71
2021/08/07 08:51:08;;;;;;;7.30;4.12;;;;;;;22.89;61.27;99491.27;1716904;82;21048;-72
2021/08/07 08:53:39;;;;;;;4.67;4.15;;;;;;;23.05;61.30;99495.51;1718602;83;21005;-72
2021/08/07 08:56:07;;;;;;;7.30;4.08;;;;;;;23.13;60.44;99487.14;1698025;84;21832;-70
2021/08/07 08:58:38;;;;;;;8.88;4.55;;;;;;;23.24;60.74;99494.98;1699794;84;21020;-70
2021/08/07 09:01:07;;;;;;;5.80;3.90;;;;;;;23.40;60.39;99498.95;1697494;84;21079;-73
2021/08/07 09:03:35;;;;;;;4.97;4.25;;;;;;;23.53;59.83;99510.08;1700282;84;21032;-69
2021/08/07 09:06:02;;;;;;;6.50;3.90;;;;;;;23.60;58.65;99502.77;1699852;84;21107;-72
2021/08/07 09:08:28;;;;;;;4.62;3.65;;;;;;;23.58;58.61;99516.97;1700291;84;22235;-70
2021/08/07 09:11:22;;;;;;;4.58;4.12;;;;;;;23.60;58.36;99516.25;1673112;84;21436;-68
2021/08/07 09:13:48;;;;;;;4.05;3.60;;;;;;;23.65;58.53;99520.45;1698518;84;21103;-71
2021/08/07 09:16:17;;;;;;;5.00;3.70;;;;;;;23.83;59.04;99519.03;1699755;83;21003;-71
2021/08/07 09:18:44;;;;;;;4.22;3.40;;;;;;;23.97;58.23;99525.08;1700848;84;21059;-71
2021/08/07 09:21:17;;;;;;;4.22;3.25;;;;;;;24.10;57.91;99524.05;1699996;84;21811;-70
2021/08/07 09:23:46;;;;;;;5.15;3.10;;;;;;;24.22;57.63;99524.39;1698161;84;21033;-70
2021/08/07 09:26:22;;;;;;;4.25;3.50;;;;;;;24.27;55.88;99529.91;1700387;84;21044;-70
2021/08/07 09:28:55;;;;;;;3.40;3.10;;;;;;;24.27;56.37;99531.25;1701838;84;20981;-69
2021/08/07 09:31:25;;;;;;;3.90;3.30;;;;;;;24.39;55.93;99546.67;1701439;84;21051;-69
2021/08/07 09:34:17;;;;;;;3.50;3.10;;;;;;;24.41;55.78;99544.56;1693981;84;21792;-70
2021/08/07 09:36:47;;;;;;;4.72;3.25;;;;;;;24.53;56.08;99535.98;1675152;85;21704;-71
2021/08/07 09:39:15;;;;;;;3.95;3.00;;;;;;;24.76;55.80;99552.72;1671235;84;21075;-71
2021/08/07 09:41:58;;;;;;;3.15;2.40;;;;;;;24.90;54.64;99558.69;1683399;84;21172;-70
2021/08/07 09:44:27;;;;;;;2.62;2.02;;;;;;;24.99;53.59;99551.35;1691709;84;21048;-73
2021/08/07 09:47:09;;;;;;;2.08;1.80;;;;;;;25.10;52.16;99564.09;1651981;85;22241;-71
2021/08/07 09:49:39;;;;;;;;;;;;;;;25.10;49.70;99568.14;1689098;84;21017;-71
2021/08/07 09:52:06;;;;;;;2.08;1.87;;;;;;;24.98;49.51;99571.33;1676318;84;20136;-71
2021/08/07 09:54:40;;;;;;;3.05;1.90;;;;;;;24.89;49.67;99575.96;1674481;85;20988;-71
2021/08/07 09:57:08;;;;;;;;;;;;;;;24.78;49.60;99578.95;1690749;83;21462;-74
2021/08/07 09:59:47;;;;;;;3.55;1.80;;;;;;;24.73;50.37;99581.55;1674576;85;21924;-71
2021/08/07 10:02:24;;;;;;;2.20;2.00;;;;;;;24.89;51.83;99581.36;1681048;84;21531;-72
2021/08/07 10:04:55;;;;;;;1.90;1.70;;;;;;;25.15;51.15;99595.80;1692328;84;21148;-74
2021/08/07 10:07:23;;;;;;;4.05;2.05;;;;;;;25.37;49.63;99603.58;1659057;85;21013;-73
2021/08/07 10:10:21;;;;;;;5.17;1.70;;;;;;;25.48;47.28;99599.74;1685735;84;21547;-73
2021/08/07 10:12:49;;;;;;;2.10;1.90;;;;;;;25.49;48.36;99610.34;1685022;83;21864;-73
2021/08/07 10:15:17;;;;;;;3.00;1.45;;;;;;;25.56;47.73;99591.27;1672770;85;21017;-72
2021/08/07 10:17:44;;;;;;;1.80;1.47;;;;;;;25.59;47.53;99585.41;1656223;86;21135;-72
2021/08/07 10:20:12;;;;;;;2.87;1.80;;;;;;;25.66;49.04;99576.60;1661387;85;21095;-72
2021/08/07 10:22:39;;;;;;;2.02;1.67;;;;;;;25.88;48.23;99580.88;1658004;86;21021;-72
2021/08/07 10:25:08;;;;;;;3.72;1.70;;;;;;;26.01;47.94;99581.11;1660494;86;21817;-71
2021/08/07 10:27:34;;;;;;;3.95;1.87;;;;;;;26.08;46.94;99580.44;1646239;86;21063;-75
2021/08/07 10:30:03;;;;;;;4.53;2.00;;;;;;;26.11;47.84;99577.24;1662423;85;21386;-73
2021/08/07 10:32:31;;;;;;;3.17;1.90;;;;;;;26.23;47.92;99574.75;1676537;84;20981;-78
2021/08/07 10:34:58;;;;;;;2.87;1.92;;;;;;;26.48;48.49;99571.72;1701585;84;21014;-75
2021/08/07 10:37:27;;;;;;;2.47;1.80;;;;;;;26.63;47.40;99578.44;1701059;84;22285;-74
2021/08/07 10:39:54;;;;;;;4.72;1.80;;;;;;;26.73;46.48;99577.24;1711892;82;21587;-74
2021/08/07 10:42:21;;;;;;;2.37;1.98;;;;;;;26.74;45.79;99569.43;1752468;81;21385;-72
2021/08/07 10:44:51;;;;;;;2.42;1.80;;;;;;;26.77;46.81;99552.14;1724043;82;20972;-74
2021/08/07 10:47:39;;;;;;;1.82;1.65;;;;;;;26.97;46.01;99550.80;1749600;82;21530;-75
2021/08/07 10:50:34;;;;;;;2.98;1.72;;;;;;;27.04;46.49;99543.35;1743635;82;21983;-72
2021/08/07 10:53:25;;;;;;;1.80;1.70;;;;;;;27.23;45.83;99544.70;1738273;82;20941;-74
2021/08/07 10:55:54;;;;;;;2.75;1.60;;;;;;;27.22;45.29;99534.93;1749495;82;20981;-74
2021/08/07 10:58:42;;;;;;;2.87;1.75;;;;;;;27.27;45.87;99536.87;1746498;82;20948;-74
2021/08/07 11:01:27;;;;;;;4.45;1.52;;;;;;;27.26;45.13;99528.45;1734674;82;20873;-74
2021/08/07 11:04:11;;;;;;;2.05;1.55;;;;;;;27.30;44.68;99526.88;1743367;82;22232;-74
2021/08/07 11:06:46;;;;;;;4.37;1.67;;;;;;;27.26;44.59;99519.79;1749476;82;20945;-71
2021/08/07 11:09:39;;;;;;;3.62;1.57;;;;;;;27.24;44.82;99509.73;1740746;81;21104;-73
2021/08/07 11:12:15;;;;;;;3.30;1.77;;;;;;;27.25;45.52;99503.77;1741695;81;21032;-74
2021/08/07 11:14:52;;;;;;;3.80;1.60;;;;;;;27.43;45.91;99517.56;1726419;81;21061;-75
2021/08/07 11:17:24;;;;;;;4.10;1.80;;;;;;;27.43;44.64;99513.49;1736078;82;21842;-73
2021/08/07 11:20:05;;;;;;;3.47;1.70;;;;;;;27.37;44.28;99517.48;1737020;81;20989;-71
2021/08/07 11:22:39;;;;;;;2.25;1.67;;;;;;;27.50;45.29;99518.16;1741817;82;21052;-72
2021/08/07 11:25:17;;;;;;;1.60;1.50;;;;;;;27.56;44.20;99538.86;1741635;81;20948;-75
2021/08/07 11:27:53;;;;;;;6.15;1.50;;;;;;;27.54;43.81;99543.73;1750295;82;20961;-75
2021/08/07 11:30:33;;;;;;;2.87;1.42;;;;;;;27.36;42.72;99554.34;1747778;81;21758;-74
2021/08/07 11:33:13;;;;;;;1.70;1.37;;;;;;;27.05;42.99;99558.00;1747960;81;20948;-74
2021/08/07 11:35:45;;;;;;;1.90;1.52;;;;;;;26.82;43.59;99548.67;1747675;81;21055;-77
2021/08/07 11:38:17;;;;;;;2.85;1.50;;;;;;;26.64;44.05;99548.42;1747685;81;20974;-73